createdAt,value
2018-09-10T00:02:11.404Z,13.20
2018-09-10T00:04:39.850Z,13.10
2018-09-10T00:07:08.382Z,13.10
2018-09-10T00:09:36.763Z,13.10
2018-09-10T00:12:05.375Z,13.10
2018-09-10T00:14:33.812Z,13.00
2018-09-10T00:17:02.231Z,13.00
2018-09-10T00:19:30.640Z,13.00
2018-09-10T00:21:59.087Z,13.00
2018-09-10T00:24:27.491Z,13.00
2018-09-10T00:26:55.906Z,13.00
2018-09-10T00:29:24.410Z,13.00
2018-09-10T00:31:52.856Z,12.90
2018-09-10T00:34:21.424Z,12.80
2018-09-10T00:36:49.884Z,12.70
2018-09-10T00:39:18.285Z,12.70
2018-09-10T00:41:46.719Z,12.70
2018-09-10T00:44:15.129Z,12.70
2018-09-10T00:46:43.576Z,12.70
2018-09-10T00:49:11.974Z,12.70
2018-09-10T00:51:40.416Z,12.70
2018-09-10T00:54:08.820Z,12.70
2018-09-10T00:56:37.265Z,12.70
2018-09-10T00:59:05.678Z,12.70
2018-09-10T01:01:34.130Z,12.70
2018-09-10T01:04:02.569Z,12.70
2018-09-10T01:06:31.035Z,12.70
2018-09-10T01:08:59.437Z,12.70
2018-09-10T01:11:27.884Z,12.70
2018-09-10T01:13:56.333Z,12.70
2018-09-10T01:16:24.739Z,12.70
2018-09-10T01:18:53.193Z,12.70
2018-09-10T01:21:21.612Z,12.60
2018-09-10T01:23:50.061Z,12.60
2018-09-10T01:26:18.462Z,12.50
2018-09-10T01:28:46.869Z,12.50
2018-09-10T01:31:15.329Z,12.50
2018-09-10T01:33:49.047Z,12.40
2018-09-10T01:36:17.493Z,12.30
2018-09-10T01:41:14.041Z,12.20
2018-09-10T01:43:42.477Z,12.20
2018-09-10T01:46:10.884Z,12.20
2018-09-10T01:48:39.325Z,12.20
2018-09-10T01:51:07.730Z,12.20
2018-09-10T01:53:36.172Z,12.20
2018-09-10T01:56:05.064Z,12.20
2018-09-10T01:58:33.510Z,12.20
2018-09-10T02:01:01.915Z,12.10
2018-09-10T02:05:58.604Z,12.10
2018-09-10T02:10:55.131Z,12.10
2018-09-10T02:13:23.584Z,12.10
2018-09-10T02:15:52.618Z,12.10
2018-09-10T02:18:22.560Z,12.10
2018-09-10T02:20:51.236Z,12.00
2018-09-10T02:23:20.026Z,12.00
2018-09-10T02:25:48.444Z,12.00
2018-09-10T02:28:16.885Z,11.90
2018-09-10T02:30:45.293Z,11.90
2018-09-10T02:33:13.733Z,11.90
2018-09-10T02:35:42.140Z,11.90
2018-09-10T02:38:10.619Z,11.80
2018-09-10T02:40:39.050Z,11.70
2018-09-10T02:43:07.509Z,11.70
2018-09-10T02:45:35.963Z,11.70
2018-09-10T02:48:04.542Z,11.70
2018-09-10T02:50:32.976Z,11.70
2018-09-10T02:53:01.408Z,11.70
2018-09-10T02:55:29.892Z,11.70
2018-09-10T02:57:58.318Z,11.70
2018-09-10T03:00:26.782Z,11.70
2018-09-10T03:02:55.541Z,11.70
2018-09-10T03:05:23.985Z,11.70
2018-09-10T03:07:52.418Z,11.60
2018-09-10T03:10:22.314Z,11.50
2018-09-10T03:12:51.562Z,11.50
2018-09-10T03:15:20.417Z,11.50
2018-09-10T03:17:48.872Z,11.60
2018-09-10T03:20:17.349Z,11.60
2018-09-10T03:22:45.761Z,11.60
2018-09-10T03:25:14.193Z,11.60
2018-09-10T03:27:42.705Z,11.60
2018-09-10T03:30:11.177Z,11.60
2018-09-10T03:32:40.033Z,11.60
2018-09-10T03:35:08.524Z,11.70
2018-09-10T03:37:37.200Z,11.70
2018-09-10T03:40:05.666Z,11.70
2018-09-10T03:42:34.106Z,11.60
2018-09-10T03:45:02.589Z,11.70
2018-09-10T03:47:31.044Z,11.70
2018-09-10T03:49:59.447Z,11.70
2018-09-10T03:52:27.889Z,11.70
2018-09-10T03:54:56.349Z,11.70
2018-09-10T03:57:24.756Z,11.60
2018-09-10T03:59:53.373Z,11.60
2018-09-10T04:02:21.854Z,11.60
2018-09-10T04:07:18.462Z,11.50
2018-09-10T04:09:46.914Z,11.50
2018-09-10T04:12:15.322Z,11.40
2018-09-10T04:14:43.803Z,11.40
2018-09-10T04:17:12.299Z,11.40
2018-09-10T04:19:40.785Z,11.40
2018-09-10T04:22:09.290Z,11.30
2018-09-10T04:24:37.774Z,11.30
2018-09-10T04:27:06.172Z,11.40
2018-09-10T04:29:34.617Z,11.30
2018-09-10T04:32:03.022Z,11.30
2018-09-10T04:34:31.494Z,11.20
2018-09-10T04:36:59.901Z,11.20
2018-09-10T04:39:28.313Z,11.20
2018-09-10T04:41:56.845Z,11.20
2018-09-10T04:44:25.285Z,11.20
2018-09-10T04:46:53.724Z,11.20
2018-09-10T04:51:51.005Z,11.20
2018-09-10T04:54:19.418Z,11.20
2018-09-10T04:56:47.851Z,11.30
2018-09-10T04:59:16.271Z,11.30
2018-09-10T05:01:44.701Z,11.30
2018-09-10T05:04:13.144Z,11.30
2018-09-10T05:06:41.565Z,11.40
2018-09-10T05:09:10.274Z,11.40
2018-09-10T05:11:38.752Z,11.30
2018-09-10T05:14:07.160Z,11.20
2018-09-10T05:16:35.680Z,11.10
2018-09-10T05:19:04.065Z,11.00
2018-09-10T05:21:32.498Z,10.90
2018-09-10T05:24:00.978Z,10.90
2018-09-10T05:26:29.439Z,11.00
2018-09-10T05:28:57.885Z,11.10
2018-09-10T05:31:26.334Z,11.20
2018-09-10T05:33:54.713Z,11.30
2018-09-10T05:36:23.151Z,11.50
2018-09-10T05:38:51.647Z,11.60
2018-09-10T05:41:20.097Z,11.70
2018-09-10T05:43:48.528Z,11.90
2018-09-10T05:46:16.976Z,12.00
2018-09-10T05:48:45.372Z,12.10
2018-09-10T05:51:13.837Z,12.30
2018-09-10T05:53:42.334Z,12.50
2018-09-10T05:56:10.877Z,12.60
2018-09-10T05:58:39.296Z,12.70
2018-09-10T06:01:07.756Z,12.70
2018-09-10T06:03:36.210Z,12.90
2018-09-10T06:06:04.701Z,13.00
2018-09-10T06:11:01.252Z,13.10
2018-09-10T06:13:29.665Z,13.20
2018-09-10T06:15:58.189Z,13.30
2018-09-10T06:18:26.601Z,13.50
2018-09-10T06:25:51.305Z,14.70
2018-09-10T06:28:19.742Z,16.20
2018-09-10T06:30:48.165Z,17.80
2018-09-10T06:33:16.572Z,19.80
2018-09-10T06:35:44.977Z,21.90
2018-09-10T06:38:13.420Z,23.70
2018-09-10T06:40:41.857Z,25.00
2018-09-10T06:43:10.315Z,26.00
2018-09-10T06:45:38.796Z,26.90
2018-09-10T06:48:07.278Z,27.70
2018-09-10T06:50:35.682Z,28.80
2018-09-10T06:53:04.134Z,29.80
2018-09-10T06:55:32.905Z,30.20
2018-09-10T06:58:01.337Z,30.30
2018-09-10T07:00:29.801Z,30.80
2018-09-10T07:02:58.265Z,30.80
2018-09-10T07:05:26.673Z,30.70
2018-09-10T07:07:55.131Z,30.70
2018-09-10T07:10:23.591Z,30.80
2018-09-10T07:12:52.061Z,31.00
2018-09-10T07:15:20.429Z,31.30
2018-09-10T07:17:49.089Z,31.70
2018-09-10T07:20:17.476Z,31.80
2018-09-10T07:22:45.885Z,32.70
2018-09-10T07:25:14.345Z,33.10
2018-09-10T07:27:42.773Z,32.60
2018-09-10T07:30:11.169Z,32.20
2018-09-10T07:32:39.633Z,31.30
2018-09-10T07:37:36.218Z,29.90
2018-09-10T07:40:04.742Z,29.70
2018-09-10T07:42:33.271Z,29.60
2018-09-10T07:45:01.708Z,29.30
2018-09-10T07:49:58.322Z,28.60
2018-09-10T07:52:26.773Z,28.70
2018-09-10T07:54:55.190Z,28.60
2018-09-10T07:57:23.630Z,28.50
2018-09-10T07:59:52.077Z,27.90
2018-09-10T08:02:20.643Z,27.90
2018-09-10T08:04:49.080Z,28.00
2018-09-10T08:07:17.518Z,28.30
2018-09-10T08:09:45.977Z,28.60
2018-09-10T08:12:14.399Z,29.20
2018-09-10T08:14:42.866Z,30.10
2018-09-10T08:17:11.312Z,30.10
2018-09-10T08:19:39.764Z,30.60
2018-09-10T08:22:08.170Z,30.80
2018-09-10T08:24:36.616Z,31.00
2018-09-10T08:27:05.197Z,31.10
2018-09-10T08:29:33.655Z,30.70
2018-09-10T08:32:02.064Z,30.60
2018-09-10T08:34:30.548Z,30.00
2018-09-10T08:36:59.104Z,29.20
2018-09-10T08:41:55.717Z,27.30
2018-09-10T08:44:24.229Z,27.40
2018-09-10T08:46:52.644Z,27.80
2018-09-10T08:49:21.094Z,28.40
2018-09-10T08:51:49.548Z,28.80
2018-09-10T08:54:18.057Z,29.80
2018-09-10T08:56:46.408Z,30.90
2018-09-10T08:59:14.880Z,32.40
2018-09-10T09:01:43.366Z,33.50
2018-09-10T09:04:11.790Z,34.70
2018-09-10T09:06:40.274Z,36.10
2018-09-10T09:09:09.508Z,36.10
2018-09-10T09:11:37.943Z,36.00
2018-09-10T09:14:06.420Z,36.60
2018-09-10T09:16:34.828Z,36.80
2018-09-10T09:19:03.289Z,36.20
2018-09-10T09:21:31.697Z,36.20
2018-09-10T09:24:00.121Z,37.10
2018-09-10T09:26:28.561Z,38.80
2018-09-10T09:28:57.009Z,39.20
2018-09-10T09:31:25.466Z,38.40
2018-09-10T09:36:27.400Z,38.50
2018-09-10T09:39:01.141Z,38.80
2018-09-10T09:41:34.908Z,38.40
2018-09-10T09:44:08.825Z,39.30
2018-09-10T09:46:37.245Z,38.80
2018-09-10T09:49:05.758Z,39.10
2018-09-10T09:51:34.196Z,39.20
2018-09-10T09:54:02.637Z,40.00
2018-09-10T09:56:31.072Z,40.00
2018-09-10T09:58:59.696Z,41.20
2018-09-10T10:01:33.380Z,41.20
2018-09-10T10:04:22.791Z,39.70
2018-09-10T10:06:51.640Z,39.30
2018-09-10T10:09:20.053Z,38.90
2018-09-10T10:11:48.560Z,38.70
2018-09-10T10:14:16.938Z,38.50
2018-09-10T10:16:45.353Z,38.60
2018-09-10T10:19:13.802Z,40.20
2018-09-10T10:21:42.249Z,39.80
2018-09-10T10:24:10.662Z,39.40
2018-09-10T10:26:39.129Z,38.90
2018-09-10T10:29:07.538Z,39.70
2018-09-10T10:31:36.029Z,39.40
2018-09-10T10:34:04.486Z,38.90
2018-09-10T10:36:32.943Z,39.20
2018-09-10T10:39:01.652Z,39.80
2018-09-10T10:41:30.152Z,40.00
2018-09-10T10:43:58.560Z,40.20
2018-09-10T10:46:26.996Z,39.40
2018-09-10T10:48:55.421Z,37.70
2018-09-10T10:51:23.852Z,35.40
2018-09-10T10:53:52.440Z,33.80
2018-09-10T10:56:20.761Z,31.80
2018-09-10T10:58:49.392Z,30.50
2018-09-10T11:01:17.886Z,29.40
2018-09-10T11:03:46.513Z,28.70
2018-09-10T11:06:14.989Z,28.10
2018-09-10T11:08:43.401Z,27.90
2018-09-10T11:11:11.947Z,27.90
2018-09-10T11:13:40.343Z,27.30
2018-09-10T11:16:08.760Z,26.70
2018-09-10T11:18:37.187Z,26.30
2018-09-10T11:21:05.640Z,26.20
2018-09-10T11:23:34.032Z,26.40
2018-09-10T11:26:02.460Z,26.40
2018-09-10T11:30:59.017Z,26.10
2018-09-10T11:35:55.601Z,25.90
2018-09-10T11:38:24.193Z,25.80
2018-09-10T11:40:52.632Z,25.60
2018-09-10T11:43:21.404Z,25.40
2018-09-10T11:48:17.942Z,25.20
2018-09-10T11:50:46.365Z,25.40
2018-09-10T11:53:14.770Z,25.40
2018-09-10T11:55:43.236Z,25.40
2018-09-10T11:58:11.669Z,25.40
2018-09-10T12:00:40.210Z,25.30
2018-09-10T12:03:08.666Z,25.20
2018-09-10T12:05:37.118Z,25.20
2018-09-10T12:08:05.596Z,25.20
2018-09-10T12:10:34.034Z,25.30
2018-09-10T12:13:02.489Z,25.20
2018-09-10T12:15:30.940Z,25.10
2018-09-10T12:17:59.373Z,25.00
2018-09-10T12:20:27.789Z,24.80
2018-09-10T12:22:56.217Z,24.80
2018-09-10T12:25:24.626Z,24.90
2018-09-10T12:27:53.077Z,25.00
2018-09-10T12:30:21.521Z,25.10
2018-09-10T12:32:49.975Z,25.10
2018-09-10T12:35:18.381Z,25.10
2018-09-10T12:37:47.069Z,25.10
2018-09-10T12:40:15.514Z,25.20
2018-09-10T12:42:44.004Z,25.30
2018-09-10T12:45:12.414Z,25.40
2018-09-10T12:47:40.860Z,25.40
2018-09-10T12:50:09.324Z,25.40
2018-09-10T12:52:37.752Z,25.60
2018-09-10T12:55:06.297Z,25.70
2018-09-10T12:57:34.744Z,25.50
2018-09-10T13:02:31.413Z,25.00
2018-09-10T13:04:59.858Z,25.10
2018-09-10T13:07:28.329Z,25.30
2018-09-10T13:12:24.945Z,25.40
2018-09-10T13:14:53.368Z,25.40
2018-09-10T13:17:21.827Z,25.20
2018-09-10T13:19:50.277Z,25.30
2018-09-10T13:22:18.725Z,25.40
2018-09-10T13:24:47.154Z,25.10
2018-09-10T13:27:15.592Z,24.80
2018-09-10T13:29:44.141Z,24.60
2018-09-10T13:32:12.609Z,24.50
2018-09-10T13:34:41.037Z,24.50
2018-09-10T13:37:09.485Z,24.30
2018-09-10T13:39:37.900Z,24.20
2018-09-10T13:42:06.411Z,24.20
2018-09-10T13:44:34.908Z,24.10
2018-09-10T13:49:31.552Z,24.20
2018-09-10T13:52:00.033Z,24.10
2018-09-10T13:54:28.524Z,24.00
2018-09-10T13:56:56.970Z,24.10
2018-09-10T13:59:25.409Z,24.20
2018-09-10T14:01:53.792Z,24.30
2018-09-10T14:04:22.248Z,24.30
2018-09-10T14:09:18.824Z,24.10
2018-09-10T14:11:47.270Z,24.00
2018-09-10T14:14:15.692Z,23.80
2018-09-10T14:16:44.149Z,23.60
2018-09-10T14:19:12.581Z,23.60
2018-09-10T14:26:37.886Z,23.90
2018-09-10T14:29:06.343Z,24.00
2018-09-10T14:31:34.920Z,24.10
2018-09-10T14:34:04.102Z,24.20
2018-09-10T14:36:32.513Z,24.20
2018-09-10T14:39:00.975Z,24.00
2018-09-10T14:41:29.400Z,23.80
2018-09-10T14:43:57.858Z,23.60
2018-09-10T14:46:26.265Z,23.50
2018-09-10T14:48:54.712Z,23.50
2018-09-10T14:51:23.144Z,23.50
2018-09-10T14:53:51.933Z,23.60
2018-09-10T14:56:20.351Z,23.40
2018-09-10T14:58:49.001Z,23.40
2018-09-10T15:01:17.420Z,23.40
2018-09-10T15:03:45.929Z,23.40
2018-09-10T15:06:14.336Z,23.40
2018-09-10T15:08:42.797Z,23.30
2018-09-10T15:11:11.614Z,23.30
2018-09-10T15:13:40.078Z,23.20
2018-09-10T15:16:08.510Z,23.20
2018-09-10T15:18:37.076Z,23.10
2018-09-10T15:21:05.617Z,23.00
2018-09-10T15:23:34.053Z,22.90
2018-09-10T15:26:02.532Z,22.80
2018-09-10T15:28:30.910Z,22.70
2018-09-10T15:30:59.368Z,22.60
2018-09-10T15:33:27.785Z,22.60
2018-09-10T15:35:56.240Z,22.60
2018-09-10T15:40:52.821Z,22.80
2018-09-10T15:43:21.294Z,22.90
2018-09-10T15:48:17.890Z,23.00
2018-09-10T15:50:46.344Z,23.10
2018-09-10T15:53:14.770Z,23.10
2018-09-10T15:55:43.230Z,23.20
2018-09-10T15:58:11.664Z,23.20
2018-09-10T16:00:40.121Z,23.30
2018-09-10T16:03:08.562Z,23.20
2018-09-10T16:08:05.196Z,23.20
2018-09-10T16:10:33.634Z,23.10
2018-09-10T16:13:02.043Z,23.00
2018-09-10T16:15:30.474Z,22.90
2018-09-10T16:17:58.908Z,22.70
2018-09-10T16:20:27.469Z,22.60
2018-09-10T16:22:55.869Z,22.60
2018-09-10T16:25:24.336Z,22.50
2018-09-10T16:27:52.781Z,22.50
2018-09-10T16:30:21.229Z,22.50
2018-09-10T16:32:49.660Z,22.50
2018-09-10T16:35:18.149Z,22.50
2018-09-10T16:37:46.563Z,22.40
2018-09-10T16:40:15.003Z,22.30
2018-09-10T16:42:43.420Z,22.30
2018-09-10T16:45:11.909Z,22.20
2018-09-10T16:47:40.326Z,22.10
2018-09-10T16:50:08.800Z,22.00
2018-09-10T16:52:37.207Z,21.90
2018-09-10T16:57:33.937Z,21.70
2018-09-10T17:00:02.389Z,21.60
2018-09-10T17:04:58.972Z,21.40
2018-09-10T17:07:27.512Z,21.30
2018-09-10T17:09:56.174Z,21.20
2018-09-10T17:12:24.698Z,21.10
2018-09-10T17:14:53.245Z,21.10
2018-09-10T17:17:21.642Z,21.00
2018-09-10T17:22:18.258Z,20.80
2018-09-10T17:24:46.692Z,20.80
2018-09-10T17:27:15.162Z,20.70
2018-09-10T17:29:43.604Z,20.60
2018-09-10T17:32:12.057Z,20.50
2018-09-10T17:34:40.444Z,20.40
2018-09-10T17:37:09.266Z,20.30
2018-09-10T17:39:37.701Z,20.20
2018-09-10T17:42:06.235Z,20.20
2018-09-10T17:44:34.676Z,20.10
2018-09-10T17:47:03.226Z,20.10
2018-09-10T17:51:59.751Z,19.90
2018-09-10T17:56:56.384Z,19.80
2018-09-10T18:01:52.989Z,19.80
2018-09-10T18:04:21.433Z,19.70
2018-09-10T18:06:49.992Z,19.60
2018-09-10T18:09:18.426Z,19.60
2018-09-10T18:11:46.903Z,19.50
2018-09-10T18:14:15.394Z,19.50
2018-09-10T18:16:43.940Z,19.40
2018-09-10T18:19:12.369Z,19.40
2018-09-10T18:21:40.801Z,19.30
2018-09-10T18:24:09.208Z,19.20
2018-09-10T18:26:37.629Z,19.20
2018-09-10T18:29:06.244Z,19.20
2018-09-10T18:34:02.845Z,19.10
2018-09-10T18:36:31.277Z,19.10
2018-09-10T18:38:59.767Z,19.00
2018-09-10T18:43:56.345Z,18.90
2018-09-10T18:46:26.024Z,18.90
2018-09-10T18:51:23.388Z,18.80
2018-09-10T18:56:19.980Z,18.80
2018-09-10T18:58:48.433Z,18.80
2018-09-10T19:01:17.172Z,18.80
2018-09-10T19:03:45.424Z,18.70
2018-09-10T19:06:13.845Z,18.70
2018-09-10T19:11:10.461Z,18.60
2018-09-10T19:16:07.045Z,18.60
2018-09-10T19:18:39.592Z,18.60
2018-09-10T19:21:09.441Z,18.50
2018-09-10T19:23:38.713Z,18.50
2018-09-10T19:26:07.537Z,18.40
2018-09-10T19:28:36.021Z,18.40
2018-09-10T19:31:04.523Z,18.30
2018-09-10T19:33:33.227Z,18.20
2018-09-10T19:36:01.665Z,18.10
2018-09-10T19:38:30.081Z,18.10
2018-09-10T19:40:58.599Z,18.00
2018-09-10T19:45:55.205Z,17.90
2018-09-10T19:48:23.604Z,17.90
2018-09-10T19:50:52.075Z,17.80
2018-09-10T19:53:20.516Z,17.80
2018-09-10T19:55:48.928Z,17.70
2018-09-10T19:58:17.341Z,17.60
2018-09-10T20:00:45.792Z,17.70
2018-09-10T20:03:14.256Z,17.50
2018-09-10T20:05:42.721Z,17.50
2018-09-10T20:08:11.129Z,17.50
2018-09-10T20:10:39.552Z,17.40
2018-09-10T20:15:36.164Z,17.30
2018-09-10T20:18:04.657Z,17.30
2018-09-10T20:20:33.117Z,17.20
2018-09-10T20:23:01.517Z,17.10
2018-09-10T20:27:58.310Z,17.10
2018-09-10T20:30:26.767Z,17.00
2018-09-10T20:32:55.229Z,17.00
2018-09-10T20:35:23.685Z,16.90
2018-09-10T20:37:52.176Z,16.90
2018-09-10T20:40:20.673Z,16.90
2018-09-10T20:42:49.083Z,16.80
2018-09-10T20:47:45.672Z,16.70
2018-09-10T20:52:42.238Z,16.70
2018-09-10T20:55:10.686Z,16.60
2018-09-10T20:57:39.124Z,16.60
2018-09-10T21:00:07.606Z,16.60
2018-09-10T21:02:36.017Z,16.50
2018-09-10T21:05:04.610Z,16.50
2018-09-10T21:07:33.029Z,16.40
2018-09-10T21:12:29.609Z,16.40
2018-09-10T21:14:58.051Z,16.30
2018-09-10T21:17:26.466Z,16.30
2018-09-10T21:19:54.917Z,16.20
2018-09-10T21:24:51.429Z,16.20
2018-09-10T21:29:47.952Z,16.20
2018-09-10T21:32:16.410Z,16.10
2018-09-10T21:34:44.809Z,16.00
2018-09-10T21:37:13.253Z,16.00
2018-09-10T21:39:41.672Z,16.00
2018-09-10T21:42:10.182Z,15.90
2018-09-10T21:44:38.611Z,15.90
2018-09-10T21:47:07.125Z,15.90
2018-09-10T21:49:35.637Z,15.80
2018-09-10T21:52:04.094Z,15.80
2018-09-10T21:54:32.600Z,15.80
2018-09-10T21:57:01.032Z,15.80
2018-09-10T21:59:29.413Z,15.70
2018-09-10T22:01:57.893Z,15.70
2018-09-10T22:04:26.353Z,15.70
2018-09-10T22:09:22.909Z,15.70
2018-09-10T22:11:56.632Z,15.60
2018-09-10T22:14:25.053Z,15.70
2018-09-10T22:16:53.485Z,15.60
2018-09-10T22:19:22.169Z,15.50
2018-09-10T22:21:50.647Z,15.50
2018-09-10T22:26:47.192Z,15.40
2018-09-10T22:31:44.012Z,15.40
2018-09-10T22:34:12.473Z,15.30
2018-09-10T22:36:41.005Z,15.40
2018-09-10T22:39:12.225Z,15.30
2018-09-10T22:41:41.020Z,15.40
2018-09-10T22:44:09.454Z,15.40
2018-09-10T22:46:37.900Z,15.40
2018-09-10T22:49:07.445Z,15.40
2018-09-10T22:51:36.144Z,15.40
2018-09-10T22:56:32.806Z,15.40
2018-09-10T22:59:01.299Z,15.40
2018-09-10T23:01:29.720Z,15.40
2018-09-10T23:06:26.331Z,15.40
2018-09-10T23:08:54.776Z,15.40
2018-09-10T23:11:23.211Z,15.40
2018-09-10T23:13:51.613Z,15.40
2018-09-10T23:16:20.017Z,15.40
2018-09-10T23:18:48.450Z,15.40
2018-09-10T23:21:16.848Z,15.30
2018-09-10T23:23:45.280Z,15.30
2018-09-10T23:26:13.705Z,15.30
2018-09-10T23:33:38.417Z,15.30
2018-09-10T23:36:06.846Z,15.30
2018-09-10T23:43:31.528Z,15.40
2018-09-10T23:45:59.936Z,15.40
2018-09-10T23:48:28.352Z,15.30
2018-09-10T23:50:56.936Z,15.30
2018-09-10T23:53:25.438Z,15.30
2018-09-10T23:55:54.480Z,15.30
2018-09-10T23:58:22.898Z,15.20
